Sumner, Michigan
Current Conditions -  °F | °C
As of 9:55 AM on Saturday 20 Dec 2014 (Local Time) from KAMN Reporting Station
Haze Haze  
Wind Chill: -6°   Ceiling: Unl
Heat Index: -6°   Visibility: 5mi
Dew Point: -6°   Wind: 0mph
Humidity: 99%   Direction: NA
Pressure: 30.3"   Gusts: NA
Location:  43.31°N, 84.82°W
Report Text: KAMN 201455Z AUTO 00000KT 5SM BR SCT100 M06/M06 A3030 RMK AO2 T10571059
Loading
Personal Weather Stations






























Interactive Weather Map New forecast layout! Learn more

10-Day Weather Forecast

Advertisements
Track Severe Weather on mobile